Time;durP1;ratioP1;P1;durP2;ratioP2;P2;SDS_P1;SDS_P2;PMS_P1;PMS_P2;Temp;Humidity;BMP_temperature;BMP_pressure;BME280_temperature;BME280_humidity;BME280_pressure;Samples;Min_cycle;Max_cycle;Signal;HPM_P1;HPM_P2
2022/12/26 00:01:35;;;;;;;1.77;1.13;;;;;;;12.85;81.75;100633.09;5037674;28;20086;-70
2022/12/26 00:04:01;;;;;;;1.42;1.10;;;;;;;12.88;81.59;100629.59;5049223;28;20033;-70
2022/12/26 00:06:28;;;;;;;2.25;1.13;;;;;;;12.88;81.39;100625.25;5071736;28;20082;-70
2022/12/26 00:08:54;;;;;;;3.50;1.23;;;;;;;12.78;81.69;100628.94;5043259;28;20128;-70
2022/12/26 00:11:21;;;;;;;1.50;1.20;;;;;;;12.74;82.14;100629.00;5042487;28;20050;-70
2022/12/26 00:13:52;;;;;;;2.90;1.27;;;;;;;12.76;81.98;100629.84;5066822;28;20040;-70
2022/12/26 00:16:19;;;;;;;4.20;1.20;;;;;;;12.76;81.86;100625.47;5043168;28;20456;-71
2022/12/26 00:18:45;;;;;;;2.58;1.15;;;;;;;12.76;82.35;100632.44;5048139;28;20036;-70
2022/12/26 00:21:13;;;;;;;2.08;1.00;;;;;;;12.70;82.59;100638.56;5067018;28;20040;-70
2022/12/26 00:23:39;;;;;;;3.22;1.52;;;;;;;12.65;82.89;100634.34;5049436;28;20387;-70
2022/12/26 00:26:07;;;;;;;3.30;1.58;;;;;;;12.64;82.96;100648.22;5043896;28;20113;-70
2022/12/26 00:28:32;;;;;;;3.40;1.40;;;;;;;12.65;82.84;100649.91;5062775;28;20123;-72
2022/12/26 00:31:01;;;;;;;3.22;1.50;;;;;;;12.65;82.93;100642.13;5055622;28;20458;-70
2022/12/26 00:33:27;;;;;;;4.32;1.70;;;;;;;12.66;82.59;100643.84;5053205;28;20052;-70
2022/12/26 00:35:52;;;;;;;1.85;1.17;;;;;;;12.63;82.72;100651.69;5053212;28;20066;-71
2022/12/26 00:38:18;;;;;;;2.13;1.40;;;;;;;12.60;83.10;100639.66;5072807;28;20389;-70
2022/12/26 00:40:43;;;;;;;2.42;1.40;;;;;;;12.63;82.70;100637.00;5034306;28;20405;-71
2022/12/26 00:43:09;;;;;;;2.70;1.52;;;;;;;12.60;82.89;100631.88;5052739;28;20832;-70
2022/12/26 00:45:35;;;;;;;2.83;1.50;;;;;;;12.52;82.89;100644.13;5050323;28;20397;-70
2022/12/26 00:48:00;;;;;;;3.33;1.38;;;;;;;12.44;83.38;100652.03;5051045;28;20067;-70
2022/12/26 00:50:26;;;;;;;2.55;1.63;;;;;;;12.38;83.66;100654.72;5048269;28;20037;-71
2022/12/26 00:52:52;;;;;;;5.20;1.60;;;;;;;12.33;83.62;100635.81;5034996;28;20085;-71
2022/12/26 00:55:17;;;;;;;2.22;1.33;;;;;;;12.29;83.56;100635.88;5044625;28;20110;-71
2022/12/26 00:57:43;;;;;;;4.45;1.73;;;;;;;12.21;84.08;100637.75;5049057;28;20024;-71
2022/12/26 01:00:09;;;;;;;3.10;1.65;;;;;;;12.09;84.24;100641.41;5033761;28;20435;-70
2022/12/26 01:02:37;;;;;;;3.63;1.45;;;;;;;11.98;84.76;100637.28;5050392;28;20098;-70
2022/12/26 01:05:04;;;;;;;4.13;1.58;;;;;;;11.91;85.14;100641.69;5062418;28;20047;-70
2022/12/26 01:07:33;;;;;;;2.67;1.33;;;;;;;11.82;85.50;100637.53;5043861;28;20060;-70
2022/12/26 01:09:59;;;;;;;3.50;2.13;;;;;;;11.72;85.77;100653.22;5047271;28;20043;-71
2022/12/26 01:12:26;;;;;;;1.92;1.50;;;;;;;11.62;86.09;100662.00;5047410;28;20028;-71
2022/12/26 01:14:54;;;;;;;4.00;1.90;;;;;;;11.53;86.63;100670.75;5062610;28;20040;-71
2022/12/26 01:17:20;;;;;;;4.00;1.63;;;;;;;11.51;87.11;100680.28;5061715;28;20111;-70
2022/12/26 01:19:45;;;;;;;2.70;1.60;;;;;;;11.52;86.85;100686.28;5048566;28;20136;-70
2022/12/26 01:22:11;;;;;;;2.17;1.38;;;;;;;11.55;86.76;100696.59;5062590;28;20076;-71
2022/12/26 01:24:36;;;;;;;2.75;1.50;;;;;;;11.51;86.33;100700.13;5068370;28;20389;-70
2022/12/26 01:27:02;;;;;;;2.58;1.55;;;;;;;11.44;86.76;100694.16;5071933;28;20449;-70
2022/12/26 01:29:27;;;;;;;5.13;1.70;;;;;;;11.38;86.84;100695.94;5068711;28;20501;-70
2022/12/26 01:31:53;;;;;;;3.63;2.00;;;;;;;11.33;86.89;100701.19;5063980;28;20075;-70
2022/12/26 01:34:18;;;;;;;7.65;1.85;;;;;;;11.26;87.00;100691.78;5034795;28;20688;-70
2022/12/26 01:36:44;;;;;;;6.95;2.90;;;;;;;11.20;87.08;100700.47;5051751;28;20032;-70
2022/12/26 01:39:09;;;;;;;5.93;2.28;;;;;;;11.12;87.46;100701.44;5064859;28;20428;-71
2022/12/26 01:41:35;;;;;;;3.75;2.00;;;;;;;11.08;87.63;100710.09;5061931;28;20041;-70
2022/12/26 01:44:05;;;;;;;3.17;1.48;;;;;;;11.03;88.02;100709.31;5065185;28;20037;-70
2022/12/26 01:46:39;;;;;;;4.15;1.85;;;;;;;11.00;88.13;100704.16;5066150;28;20101;-70
2022/12/26 01:49:16;;;;;;;4.28;1.70;;;;;;;10.98;87.62;100699.00;5063595;28;20089;-70
2022/12/26 01:51:47;;;;;;;3.90;1.60;;;;;;;10.99;87.80;100711.06;5063112;28;20032;-70
2022/12/26 01:54:13;;;;;;;5.13;1.90;;;;;;;11.04;87.53;100703.28;5028312;28;20074;-70
2022/12/26 01:56:42;;;;;;;4.25;1.58;;;;;;;11.13;87.19;100709.16;5041246;28;20045;-71
2022/12/26 01:59:17;;;;;;;2.53;1.55;;;;;;;11.21;86.65;100715.13;5059944;28;20033;-71
2022/12/26 02:01:46;;;;;;;2.55;1.50;;;;;;;11.27;86.52;100702.13;5064482;28;20047;-70
2022/12/26 02:07:03;;;;;;;3.53;1.40;;;;;;;11.38;85.63;100714.06;5073644;28;20101;-70
2022/12/26 02:09:30;;;;;;;2.65;1.45;;;;;;;11.42;85.50;100703.66;5051613;28;20470;-70
2022/12/26 02:12:23;;;;;;;4.72;1.40;;;;;;;11.49;85.67;100722.56;5046298;28;20039;-70
2022/12/26 02:14:50;;;;;;;8.10;1.60;;;;;;;11.52;85.24;100717.34;5047814;28;20037;-70
2022/12/26 02:17:16;;;;;;;6.38;1.88;;;;;;;11.57;84.76;100723.34;5054107;28;20036;-70
2022/12/26 02:20:00;;;;;;;3.70;1.45;;;;;;;11.65;84.37;100734.44;5047210;28;20036;-71
2022/12/26 02:22:47;;;;;;;3.60;1.85;;;;;;;11.83;83.79;100736.78;5047852;28;20035;-71
2022/12/26 02:25:24;;;;;;;5.40;1.85;;;;;;;11.90;83.45;100730.63;5051586;28;20044;-71
2022/12/26 02:28:20;;;;;;;2.63;1.58;;;;;;;11.94;83.31;100729.72;5063911;28;20040;-71
2022/12/26 02:30:52;;;;;;;;;;;;;;;12.05;83.33;100725.22;5052355;28;20024;-70
2022/12/26 02:33:38;;;;;;;4.60;1.88;;;;;;;12.11;83.19;100726.91;5064901;28;19917;-71
2022/12/26 02:36:22;;;;;;;3.25;1.90;;;;;;;12.27;84.34;100725.75;5052563;28;20115;-70
2022/12/26 02:38:50;;;;;;;5.10;1.73;;;;;;;12.27;85.17;100716.25;5042977;28;20562;-70
2022/12/26 02:41:25;;;;;;;3.40;1.80;;;;;;;12.27;84.79;100712.81;5050203;28;20047;-70
2022/12/26 02:44:00;;;;;;;3.38;1.73;;;;;;;12.28;85.00;100715.38;5066493;28;20032;-71
2022/12/26 03:13:22;;;;;;;6.88;1.73;;;;;;;12.32;84.09;100724.81;5067531;28;20048;-70
2022/12/26 03:19:09;;;;;;;3.38;1.90;;;;;;;12.28;84.13;100728.34;5059437;28;20031;-70
2022/12/26 03:21:45;;;;;;;4.00;1.80;;;;;;;12.28;83.92;100730.06;5070592;28;20024;-70
2022/12/26 03:24:14;;;;;;;3.88;1.77;;;;;;;12.29;83.84;100719.66;5054524;28;20085;-71
2022/12/26 03:26:48;;;;;;;4.10;1.88;;;;;;;12.28;83.63;100720.56;5069657;28;20040;-71
2022/12/26 03:32:09;;;;;;;6.25;1.70;;;;;;;12.19;83.95;100701.72;5069776;28;20050;-71
2022/12/26 03:34:40;;;;;;;3.85;1.50;;;;;;;12.20;83.69;100701.66;5041692;28;20042;-70
2022/12/26 03:37:51;;;;;;;3.47;1.52;;;;;;;12.24;83.45;100716.31;5074034;28;20409;-70
2022/12/26 04:44:22;;;;;;;1.63;0.93;;;;;;;12.53;80.16;100762.47;5029900;28;20044;-68
2022/12/26 04:46:48;;;;;;;1.95;0.98;;;;;;;12.53;80.52;100759.03;5027005;28;20508;-68
2022/12/26 04:52:03;;;;;;;2.40;0.93;;;;;;;12.49;80.88;100757.38;5054701;28;20071;-68
2022/12/26 04:54:28;;;;;;;1.73;1.02;;;;;;;12.47;80.82;100767.75;5064101;28;20067;-68
2022/12/26 04:56:54;;;;;;;7.20;1.50;;;;;;;12.45;81.15;100777.31;5064416;28;20220;-67
2022/12/26 04:59:20;;;;;;;5.13;1.40;;;;;;;12.44;80.98;100770.41;5047975;28;20048;-68
2022/12/26 05:10:01;;;;;;;3.05;1.48;;;;;;;12.28;82.94;100775.00;5062928;28;20040;-67
2022/12/26 05:12:27;;;;;;;2.35;1.38;;;;;;;12.16;84.83;100774.31;5030692;28;20044;-68
2022/12/26 05:14:53;;;;;;;6.68;1.40;;;;;;;12.02;86.54;100761.53;5016581;28;20049;-68
2022/12/26 05:31:04;;;;;;;1.50;1.10;;;;;;;11.44;91.89;100765.78;5069398;28;20195;-67
2022/12/26 05:36:16;;;;;;;2.33;0.98;;;;;;;11.31;92.18;100765.88;5064197;28;20072;-68
2022/12/26 05:38:41;;;;;;;2.55;1.05;;;;;;;11.21;92.51;100766.88;5053808;28;20354;-67
2022/12/26 05:41:07;;;;;;;4.55;1.23;;;;;;;11.15;93.44;100777.28;5045369;28;20040;-67
2022/12/26 05:43:33;;;;;;;2.78;1.08;;;;;;;11.13;93.60;100776.44;5050220;28;20036;-67
2022/12/26 05:45:58;;;;;;;1.77;1.08;;;;;;;11.10;93.58;100783.38;5047387;28;20036;-67
2022/12/26 05:48:24;;;;;;;3.92;1.08;;;;;;;11.08;94.00;100783.38;5046872;28;20212;-67
2022/12/26 05:50:49;;;;;;;4.53;1.55;;;;;;;11.07;93.90;100773.91;5064204;28;20040;-68
2022/12/26 05:53:15;;;;;;;2.55;1.10;;;;;;;11.06;94.30;100781.69;5049481;28;20036;-68
2022/12/26 05:55:40;;;;;;;4.28;1.38;;;;;;;11.04;94.62;100783.44;5050782;28;20041;-68
2022/12/26 05:58:06;;;;;;;2.47;1.00;;;;;;;11.03;94.94;100785.19;5050723;28;20035;-68
2022/12/26 06:00:32;;;;;;;4.32;1.10;;;;;;;11.02;94.67;100787.75;5045484;28;20114;-69
2022/12/26 06:02:59;;;;;;;1.65;1.10;;;;;;;11.01;94.96;100799.00;5054503;28;20036;-68
2022/12/26 06:05:25;;;;;;;2.20;1.00;;;;;;;11.03;94.31;100811.03;5049015;28;20111;-67
2022/12/26 06:07:51;;;;;;;2.28;1.30;;;;;;;11.04;94.14;100811.91;5030440;28;20182;-67
2022/12/26 06:10:16;;;;;;;2.75;1.10;;;;;;;11.01;94.87;100815.34;5046625;28;20078;-68
2022/12/26 06:12:42;;;;;;;3.42;1.40;;;;;;;10.99;95.00;100822.28;5045525;28;20445;-68
2022/12/26 06:15:08;;;;;;;3.40;1.73;;;;;;;10.97;95.34;100826.63;5042921;28;20041;-68
2022/12/26 06:17:33;;;;;;;3.20;1.67;;;;;;;10.96;95.85;100826.59;5042850;28;20055;-68
2022/12/26 06:19:59;;;;;;;6.60;2.00;;;;;;;10.92;95.66;100824.94;5028731;28;20033;-67
2022/12/26 06:22:24;;;;;;;4.47;1.90;;;;;;;10.91;96.15;100818.03;5030124;28;20035;-67
2022/12/26 06:24:50;;;;;;;2.72;1.42;;;;;;;10.90;96.28;100826.66;5048480;28;20040;-67
2022/12/26 06:27:15;;;;;;;3.17;1.45;;;;;;;10.87;96.84;100830.13;5030804;28;20024;-67
2022/12/26 06:29:41;;;;;;;5.38;2.03;;;;;;;10.86;97.06;100833.59;5047924;28;20125;-67
2022/12/26 06:32:06;;;;;;;4.75;1.90;;;;;;;10.84;97.54;100837.91;5048018;28;20263;-67
2022/12/26 06:34:32;;;;;;;5.68;1.90;;;;;;;10.84;97.25;100853.44;5063412;28;20045;-66
2022/12/26 06:36:57;;;;;;;6.53;2.72;;;;;;;10.86;97.92;100848.28;5048526;28;20036;-65
2022/12/26 06:39:23;;;;;;;3.28;1.10;;;;;;;10.80;97.24;100846.59;5062651;28;20111;-65
2022/12/26 06:41:49;;;;;;;2.10;0.93;;;;;;;10.68;96.43;100836.34;5046038;28;20048;-66
2022/12/26 06:44:15;;;;;;;0.52;0.52;;;;;;;10.56;95.82;100826.97;5041938;28;20045;-66
2022/12/26 06:46:40;;;;;;;2.00;0.60;;;;;;;10.47;95.96;100821.00;5060856;28;20037;-66
2022/12/26 06:49:06;;;;;;;0.90;0.52;;;;;;;10.40;96.06;100821.91;5049059;28;20654;-65
2022/12/26 06:51:32;;;;;;;0.90;0.52;;;;;;;10.35;96.26;100814.19;5070188;28;20111;-65
2022/12/26 06:54:01;;;;;;;0.98;0.57;;;;;;;10.30;97.26;100810.75;5053657;28;20028;-65
2022/12/26 06:56:28;;;;;;;1.95;0.50;;;;;;;10.30;96.95;100817.66;5052339;28;20405;-65
2022/12/26 06:58:58;;;;;;;1.10;0.60;;;;;;;10.25;97.75;100817.69;5080036;28;20028;-65
2022/12/26 07:01:24;;;;;;;1.40;0.68;;;;;;;10.24;97.87;100808.22;5078582;28;20048;-66
2022/12/26 07:03:52;;;;;;;0.98;0.70;;;;;;;10.21;97.44;100808.22;5059128;28;20040;-66
2022/12/26 07:06:31;;;;;;;0.98;0.60;;;;;;;10.19;97.93;100823.75;5059639;28;20655;-66
2022/12/26 07:08:59;;;;;;;85.55;37.80;;;;;;;10.17;97.64;100833.25;5060721;28;20081;-66
2022/12/26 07:11:27;;;;;;;14.15;7.20;;;;;;;10.16;98.84;100835.81;5063820;28;20074;-65
2022/12/26 07:13:53;;;;;;;4.38;2.38;;;;;;;10.14;98.64;100830.69;5055820;28;20050;-66
2022/12/26 07:16:19;;;;;;;0.85;0.73;;;;;;;10.13;98.11;100833.25;5084318;28;20020;-66
2022/12/26 07:18:44;;;;;;;2.13;0.68;;;;;;;10.09;98.27;100837.56;5068694;28;20031;-66
2022/12/26 07:21:12;;;;;;;1.05;0.63;;;;;;;10.05;98.14;100835.88;5078560;28;20067;-66
2022/12/26 07:23:38;;;;;;;1.17;0.73;;;;;;;10.05;98.02;100840.19;5069593;28;20582;-66
2022/12/26 07:26:05;;;;;;;1.83;0.60;;;;;;;10.04;98.32;100847.06;5071192;28;20051;-65
2022/12/26 07:28:31;;;;;;;1.83;0.60;;;;;;;10.02;97.98;100850.53;5070988;28;20035;-66
2022/12/26 07:30:58;;;;;;;1.58;0.95;;;;;;;10.03;98.07;100862.59;5059134;28;20033;-66
2022/12/26 07:33:24;;;;;;;0.80;0.60;;;;;;;10.03;97.82;100866.00;5077092;28;20137;-66
2022/12/26 07:35:49;;;;;;;1.35;0.50;;;;;;;10.03;98.48;100872.91;5077269;28;20504;-66
2022/12/26 07:38:15;;;;;;;1.77;0.60;;;;;;;10.02;98.50;100869.47;5037835;28;20086;-65
2022/12/26 07:40:40;;;;;;;0.93;0.50;;;;;;;10.02;98.21;100874.63;5069097;28;20121;-65
2022/12/26 07:43:06;;;;;;;2.35;0.70;;;;;;;10.02;98.56;100871.19;5050774;28;20032;-65
2022/12/26 07:45:32;;;;;;;1.25;0.57;;;;;;;9.99;97.78;100873.78;5066331;28;20040;-65
2022/12/26 07:47:57;;;;;;;0.65;0.50;;;;;;;9.97;98.36;100868.63;5063888;28;20043;-65
2022/12/26 07:50:25;;;;;;;0.82;0.50;;;;;;;9.95;97.97;100869.50;5067434;28;20053;-66
2022/12/26 07:52:51;;;;;;;3.05;0.63;;;;;;;9.95;98.39;100872.06;5038319;28;20045;-65
2022/12/26 07:55:17;;;;;;;0.52;0.50;;;;;;;9.94;98.55;100872.97;5049401;28;20528;-66
2022/12/26 07:57:42;;;;;;;0.65;0.60;;;;;;;9.94;98.38;100883.28;5066711;28;20063;-68
2022/12/26 08:00:08;;;;;;;0.77;0.60;;;;;;;9.94;99.00;100897.03;5047300;28;20434;-65
2022/12/26 08:02:34;;;;;;;0.90;0.60;;;;;;;9.96;98.72;100903.06;5052421;28;20042;-65
2022/12/26 08:05:00;;;;;;;2.45;0.65;;;;;;;10.00;98.53;100911.66;5048944;28;20029;-65
2022/12/26 08:07:25;;;;;;;0.77;0.60;;;;;;;10.00;98.53;100902.16;5037727;28;20040;-65
2022/12/26 08:09:50;;;;;;;3.10;2.38;;;;;;;10.03;98.26;100911.66;5070861;28;20387;-65
2022/12/26 08:12:20;;;;;;;3.28;1.67;;;;;;;10.05;98.08;100907.34;5071405;28;20032;-66
2022/12/26 08:14:45;;;;;;;2.33;1.55;;;;;;;10.07;98.76;100905.59;5034440;28;20082;-65
2022/12/26 08:17:11;;;;;;;2.28;1.40;;;;;;;10.05;97.67;100905.63;5058977;28;20040;-65
2022/12/26 08:19:37;;;;;;;1.92;0.90;;;;;;;9.99;97.44;100908.22;5059628;28;20032;-65
2022/12/26 08:22:02;;;;;;;1.35;0.80;;;;;;;9.96;97.51;100920.28;5071766;28;20048;-65
2022/12/26 08:24:29;;;;;;;2.58;0.90;;;;;;;9.92;98.25;100929.75;5036669;28;21044;-64
2022/12/26 08:27:01;;;;;;;1.33;0.98;;;;;;;9.92;98.23;100919.44;5062204;28;20560;-65
2022/12/26 08:29:30;;;;;;;1.23;1.10;;;;;;;9.91;98.13;100902.19;5054577;28;20488;-65
2022/12/26 08:31:58;;;;;;;2.35;1.13;;;;;;;9.87;98.62;100920.31;5058917;28;20035;-66
2022/12/26 08:34:31;;;;;;;8.40;0.93;;;;;;;9.86;98.88;100924.59;5036098;28;21406;-65
2022/12/26 08:36:56;;;;;;;1.88;0.95;;;;;;;9.86;98.40;100922.03;5051917;28;20493;-65
2022/12/26 08:39:22;;;;;;;1.98;1.20;;;;;;;9.87;98.66;100913.44;5050825;28;20029;-65
2022/12/26 08:41:47;;;;;;;3.70;1.50;;;;;;;9.88;98.51;100909.97;5048659;28;20067;-66
2022/12/26 08:44:13;;;;;;;2.80;1.50;;;;;;;9.87;98.23;100913.44;5064599;28;20033;-66
2022/12/26 08:46:38;;;;;;;4.55;1.67;;;;;;;9.92;99.02;100909.09;5050107;28;20044;-65
2022/12/26 08:49:04;;;;;;;1.52;1.20;;;;;;;9.99;98.63;100915.09;5048189;28;20032;-65
2022/12/26 08:51:29;;;;;;;1.98;1.63;;;;;;;10.09;98.37;100924.50;5046776;28;20127;-66
2022/12/26 08:53:55;;;;;;;3.17;2.20;;;;;;;10.18;99.11;100927.06;5070456;28;20577;-65
2022/12/26 08:56:23;;;;;;;3.58;2.05;;;;;;;10.28;99.28;100927.88;5046282;28;20099;-65
2022/12/26 08:58:49;;;;;;;3.65;2.85;;;;;;;10.33;98.75;100931.34;5049689;28;20082;-65
2022/12/26 09:01:23;;;;;;;4.97;3.17;;;;;;;10.36;98.66;100934.72;5064835;28;20033;-66
2022/12/26 09:03:52;;;;;;;3.88;2.78;;;;;;;10.42;98.10;100926.09;5064449;28;20040;-66
2022/12/26 09:06:17;;;;;;;4.85;3.00;;;;;;;10.48;98.16;100920.88;5052647;28;20108;-65
2022/12/26 09:08:43;;;;;;;4.15;3.08;;;;;;;10.53;98.57;100932.09;5051081;28;20588;-66
2022/12/26 09:11:11;;;;;;;4.55;2.78;;;;;;;10.54;98.15;100933.78;5044548;28;20103;-65
2022/12/26 09:13:37;;;;;;;4.63;3.00;;;;;;;10.59;98.01;100943.25;5067428;28;20041;-65
2022/12/26 09:16:05;;;;;;;3.78;3.00;;;;;;;10.64;98.03;100943.22;5047270;28;20123;-65
2022/12/26 09:18:30;;;;;;;5.03;3.22;;;;;;;10.70;97.35;100950.94;5045156;28;20059;-65
2022/12/26 09:20:59;;;;;;;5.72;3.70;;;;;;;10.77;97.38;100952.63;5043566;28;20056;-65
2022/12/26 09:23:25;;;;;;;7.03;3.63;;;;;;;10.84;96.78;100951.69;5043318;28;20107;-65
2022/12/26 09:25:51;;;;;;;5.47;3.15;;;;;;;10.93;96.57;100958.53;5050803;28;20043;-65
2022/12/26 09:28:16;;;;;;;4.75;3.40;;;;;;;11.03;95.87;100953.31;5053900;28;20184;-65
2022/12/26 09:30:43;;;;;;;4.43;2.42;;;;;;;11.16;95.93;100959.22;5051722;28;20036;-65
2022/12/26 09:33:10;;;;;;;5.30;1.92;;;;;;;11.23;95.32;100961.75;5070918;28;20070;-66
2022/12/26 09:35:39;;;;;;;1.88;1.10;;;;;;;11.24;94.69;100953.13;5075325;28;20508;-66
2022/12/26 09:38:05;;;;;;;3.08;1.33;;;;;;;11.26;94.81;100959.16;5055183;28;20040;-65
2022/12/26 09:40:42;;;;;;;2.80;1.23;;;;;;;11.25;93.41;100967.78;5067591;28;20045;-65
2022/12/26 09:43:30;;;;;;;1.77;1.20;;;;;;;11.28;93.10;100977.22;5043813;28;20029;-66
2022/12/26 09:46:11;;;;;;;4.40;1.40;;;;;;;11.30;93.50;100981.56;5067590;28;20033;-65
2022/12/26 09:48:58;;;;;;;2.72;1.40;;;;;;;11.32;91.77;100990.16;5041675;28;20033;-66
2022/12/26 09:51:25;;;;;;;1.92;1.10;;;;;;;11.37;91.29;100984.94;5029831;28;20043;-66
2022/12/26 09:53:53;;;;;;;3.78;1.27;;;;;;;11.42;91.38;100990.09;5032143;28;20024;-66
2022/12/26 09:56:22;;;;;;;3.65;1.25;;;;;;;11.45;91.07;100996.13;5030558;28;20041;-65
2022/12/26 09:59:01;;;;;;;2.17;1.45;;;;;;;11.50;90.53;100991.75;5060347;28;20063;-65
2022/12/26 10:01:34;;;;;;;2.28;1.13;;;;;;;11.54;89.66;100992.59;5070689;28;20029;-65
2022/12/26 10:04:03;;;;;;;2.83;1.27;;;;;;;11.56;89.44;100998.63;5059186;28;20082;-66
2022/12/26 10:06:43;;;;;;;3.60;1.30;;;;;;;11.58;87.68;101000.31;5065840;28;20059;-66
2022/12/26 10:09:47;;;;;;;2.42;0.90;;;;;;;11.61;88.01;100989.06;5039888;28;20163;-66
2022/12/26 10:12:28;;;;;;;1.65;0.90;;;;;;;11.65;87.42;101001.13;5005454;28;20053;-66
2022/12/26 10:15:04;;;;;;;2.92;0.85;;;;;;;11.67;85.59;101008.00;5064396;28;20041;-67
2022/12/26 10:17:51;;;;;;;3.80;0.93;;;;;;;11.71;84.13;101009.72;5062929;28;20139;-67
2022/12/26 10:20:22;;;;;;;1.67;0.90;;;;;;;11.77;84.04;101004.47;5044795;28;20028;-67
2022/12/26 10:22:57;;;;;;;2.35;0.80;;;;;;;11.80;83.57;100999.25;5066848;28;20033;-66
2022/12/26 10:25:45;;;;;;;1.33;0.77;;;;;;;11.82;83.79;100994.06;5069891;28;20040;-66
2022/12/26 10:28:32;;;;;;;2.55;1.08;;;;;;;11.84;82.53;100990.56;5060569;28;20048;-69
2022/12/26 10:31:01;;;;;;;3.30;0.75;;;;;;;11.87;81.80;100974.16;5053378;28;20085;-69
2022/12/26 10:33:39;;;;;;;1.75;0.98;;;;;;;11.88;81.93;100992.25;5053121;28;20486;-69
2022/12/26 10:36:08;;;;;;;1.95;0.85;;;;;;;11.94;79.61;100991.34;5047207;28;20109;-69
2022/12/26 10:38:41;;;;;;;3.10;1.20;;;;;;;11.97;80.22;100995.63;5047910;28;20040;-69
2022/12/26 10:41:17;;;;;;;2.90;0.60;;;;;;;12.02;80.10;101001.66;5067421;28;20032;-69
2022/12/26 10:43:44;;;;;;;5.10;1.00;;;;;;;12.10;78.20;100992.91;5046450;28;20036;-69
2022/12/26 10:46:47;;;;;;;3.35;1.20;;;;;;;12.19;77.06;101003.19;5041935;28;20502;-70
2022/12/26 10:49:17;;;;;;;2.08;0.88;;;;;;;12.37;73.50;100992.59;5048474;28;20107;-70
2022/12/26 10:51:43;;;;;;;4.57;0.90;;;;;;;12.43;74.48;100996.84;5061512;28;20107;-71
2022/12/26 10:54:18;;;;;;;4.25;1.02;;;;;;;12.48;75.11;101001.97;5017547;28;20478;-71
2022/12/26 10:56:48;;;;;;;2.13;0.63;;;;;;;12.49;75.38;100993.31;5029475;28;20033;-70
2022/12/26 10:59:18;;;;;;;4.63;1.10;;;;;;;12.51;74.68;100987.22;5038883;28;20037;-71
2022/12/26 11:01:47;;;;;;;1.77;0.90;;;;;;;12.54;74.83;100994.97;5039530;28;20033;-70
2022/12/26 11:04:18;;;;;;;3.38;0.70;;;;;;;12.58;73.55;100980.22;5053962;28;20045;-70
2022/12/26 11:06:46;;;;;;;2.35;1.13;;;;;;;12.54;75.35;101000.16;5042237;28;20048;-70
2022/12/26 11:09:39;;;;;;;2.50;0.80;;;;;;;12.54;73.81;100997.56;5048115;28;20055;-70
2022/12/26 11:12:17;;;;;;;2.85;0.68;;;;;;;12.51;74.35;100995.00;5042360;28;20103;-69
2022/12/26 11:14:45;;;;;;;3.67;0.70;;;;;;;12.54;72.79;100994.97;5034066;28;20041;-70
2022/12/26 11:17:23;;;;;;;5.22;0.95;;;;;;;12.56;73.38;100994.94;5029431;28;20116;-69
2022/12/26 11:19:48;;;;;;;3.03;0.80;;;;;;;12.51;74.39;100989.81;5051462;28;20048;-69
2022/12/26 11:22:23;;;;;;;3.85;0.80;;;;;;;12.48;74.37;100994.19;5034779;28;20063;-69
2022/12/26 11:25:07;;;;;;;4.15;1.27;;;;;;;12.43;74.37;100994.25;5042418;28;20029;-69
2022/12/26 11:27:32;;;;;;;3.65;1.15;;;;;;;12.43;73.69;100987.31;5033488;28;20075;-69
2022/12/26 11:30:12;;;;;;;4.50;1.08;;;;;;;12.40;74.04;100987.38;5033109;28;20525;-70
2022/12/26 11:32:39;;;;;;;4.28;1.17;;;;;;;12.43;73.59;100976.09;5056769;28;20072;-70
2022/12/26 11:35:05;;;;;;;3.47;0.68;;;;;;;12.42;73.99;100976.97;5034773;28;20022;-70
2022/12/26 11:37:40;;;;;;;4.70;1.33;;;;;;;12.42;73.62;100966.59;5051837;28;20105;-70
2022/12/26 11:40:15;;;;;;;4.03;1.20;;;;;;;12.43;74.15;100976.09;5050521;28;20059;-70
2022/12/26 11:42:41;;;;;;;4.70;0.93;;;;;;;12.43;74.36;100976.09;5040535;28;20029;-70
2022/12/26 11:45:10;;;;;;;5.80;1.63;;;;;;;12.41;73.11;100973.50;5034491;28;20567;-70
2022/12/26 11:47:36;;;;;;;4.45;1.00;;;;;;;12.39;73.16;100977.00;5011360;28;20029;-70
2022/12/26 11:50:19;;;;;;;2.95;1.10;;;;;;;12.38;72.77;100986.50;5014444;28;20437;-69
2022/12/26 11:53:02;;;;;;;3.13;0.80;;;;;;;12.33;72.91;100987.44;5074698;28;20110;-70
2022/12/26 11:55:32;;;;;;;2.75;0.82;;;;;;;12.29;72.83;100991.81;5070041;28;20047;-69
2022/12/26 11:58:08;;;;;;;7.30;1.13;;;;;;;12.34;72.48;100990.03;5067384;28;20064;-69
2022/12/26 12:00:40;;;;;;;3.35;0.73;;;;;;;12.37;73.30;100996.91;5067741;28;20040;-69
2022/12/26 12:03:14;;;;;;;3.88;0.60;;;;;;;12.43;72.59;100991.66;5072755;28;20141;-70
2022/12/26 12:05:40;;;;;;;;;;;;;;;12.45;73.32;101008.91;5072911;28;20157;-70
2022/12/26 12:08:23;;;;;;;3.25;0.88;;;;;;;12.44;73.03;101006.31;5056993;28;19999;-70
2022/12/26 12:11:04;;;;;;;5.85;1.02;;;;;;;12.43;73.54;101009.81;5055074;28;20060;-70
2022/12/26 12:13:33;;;;;;;3.85;1.08;;;;;;;12.40;73.69;101000.34;5062056;28;20510;-70
2022/12/26 12:16:16;;;;;;;6.35;1.27;;;;;;;12.44;73.22;101003.72;5066563;28;20071;-69
2022/12/26 12:18:57;;;;;;;3.72;1.08;;;;;;;12.49;72.64;100990.72;5063567;28;20094;-69
2022/12/26 12:21:41;;;;;;;3.67;0.90;;;;;;;12.55;72.29;100975.09;5060692;28;20031;-70
2022/12/26 12:24:06;;;;;;;4.28;1.38;;;;;;;12.57;72.67;100983.69;5059925;28;20106;-70
2022/12/26 12:27:11;;;;;;;3.42;0.90;;;;;;;12.58;72.33;100981.09;5041089;28;20656;-69
2022/12/26 12:29:55;;;;;;;4.68;1.63;;;;;;;12.60;72.03;100981.06;4997755;28;20423;-71
2022/12/26 12:32:47;;;;;;;3.28;0.95;;;;;;;12.60;71.66;100981.94;5065058;28;20139;-70
2022/12/26 12:35:22;;;;;;;4.90;1.10;;;;;;;12.72;71.03;100979.16;5047065;28;20051;-70
2022/12/26 12:37:59;;;;;;;2.83;0.90;;;;;;;12.81;70.44;100966.06;5069260;28;20207;-71
2022/12/26 12:40:34;;;;;;;3.30;0.95;;;;;;;12.87;70.94;100971.19;5052423;28;20112;-69
2022/12/26 12:43:12;;;;;;;3.78;1.02;;;;;;;12.90;70.99;100980.66;5052610;28;20032;-70
2022/12/26 12:46:16;;;;;;;2.47;0.60;;;;;;;12.90;69.55;100971.13;5070803;28;20086;-70
2022/12/26 12:49:06;;;;;;;2.10;0.63;;;;;;;12.92;68.30;100955.53;5065373;28;20052;-70
2022/12/26 12:52:14;;;;;;;2.97;0.80;;;;;;;12.86;67.47;100958.22;5044420;28;20032;-70
2022/12/26 12:55:10;;;;;;;2.45;0.60;;;;;;;12.77;68.52;100968.72;4988398;28;20070;-70
2022/12/26 12:57:48;;;;;;;;;;;;;;;12.68;68.68;100966.25;5070498;28;20480;-70
2022/12/26 13:00:23;;;;;;;1.48;0.50;;;;;;;12.59;69.67;100976.75;5040728;28;19916;-70
2022/12/26 13:03:00;;;;;;;2.45;0.77;;;;;;;12.50;70.54;100987.22;5038491;28;20086;-69
2022/12/26 13:06:10;;;;;;;0.98;0.60;;;;;;;12.42;69.62;100983.03;5051093;28;20514;-70
2022/12/26 13:08:39;;;;;;;1.35;0.50;;;;;;;12.41;70.34;100995.97;5073185;28;20047;-69
2022/12/26 13:11:24;;;;;;;2.13;0.68;;;;;;;12.42;70.51;100988.22;5054055;28;20127;-71
2022/12/26 13:14:01;;;;;;;3.03;0.70;;;;;;;12.43;70.60;100991.66;5071537;28;20047;-69
2022/12/26 13:16:42;;;;;;;2.30;0.60;;;;;;;12.43;70.87;100989.91;5070273;28;20040;-69
2022/12/26 13:19:31;;;;;;;3.13;1.38;;;;;;;12.40;71.14;100987.38;5071600;28;20096;-69
2022/12/26 13:22:03;;;;;;;2.85;0.68;;;;;;;12.41;71.12;100988.22;5047039;28;20081;-70
2022/12/26 13:24:40;;;;;;;1.25;0.57;;;;;;;12.35;72.01;100999.50;5070449;28;20024;-71
2022/12/26 13:27:15;;;;;;;4.13;0.65;;;;;;;12.29;71.73;101004.75;5053106;28;20074;-70
2022/12/26 13:29:46;;;;;;;1.60;0.70;;;;;;;12.27;72.77;101005.66;5070423;28;20032;-70
2022/12/26 13:32:29;;;;;;;2.58;0.65;;;;;;;12.23;72.27;100994.47;5069597;28;20041;-69
2022/12/26 13:34:58;;;;;;;4.10;0.60;;;;;;;12.20;72.44;100994.50;5051724;28;20509;-70
2022/12/26 13:37:39;;;;;;;1.30;0.60;;;;;;;12.17;73.08;100989.34;5045484;28;20651;-70
2022/12/26 13:40:30;;;;;;;2.53;0.70;;;;;;;12.17;73.53;100984.16;5067322;28;20036;-70
2022/12/26 13:45:49;;;;;;;2.28;0.70;;;;;;;12.16;73.59;100982.47;5052419;28;20051;-69
2022/12/26 13:48:15;;;;;;;1.83;0.70;;;;;;;12.14;74.12;100975.59;5069768;28;20024;-69
2022/12/26 13:50:47;;;;;;;4.18;0.90;;;;;;;12.10;74.13;100977.34;5061908;28;20032;-70
2022/12/26 13:53:25;;;;;;;4.40;0.75;;;;;;;12.08;75.00;100980.84;5045763;28;20033;-71
2022/12/26 13:55:53;;;;;;;1.05;0.57;;;;;;;12.01;75.11;100987.81;5051992;28;20457;-69